Ana Sayfa
METAR-TAF:

METAR-TAF

Havaalanları :

Wakkanai, Japonya

Enlem: 45-24N, Boylam: 141-48E, yükseklik: 8 m

Güncel hava durumu gözlemi

Rapor saat 09:00 UTC de 10 saat ve 18 dakika önce yapıldı.
Rüzgar güney/güneybatıdan 9 kt
Sıcaklık 2°C
Nem 80%
Basınç 1009 hPa
Görüş mesafesi 10 km veya daha fazla
2500 ft yükseklikte az bulutlu
4000 ft yükseklikte parçalı bulutlu
5000 ft yükseklikte parçalı çok bulutlu

METAR: RJCW 160900Z 20009KT 9999 FEW025 SCT040 BKN050 02/M01 Q1009

Saat: 04:18 (19:18 UTC)


TAF: eksik

4.000'den fazla havaalanı için hava durumu gözlemleri ve tahminleri (METAR ve TAF raporları).

Kullanılabilir istasyonlar harita üzerinde sarı ve kırmızı noktalarla gösterilir.

İstasyonun adını görmek için fareyi noktanın üzerinde gezdirin.

Sonrasında hava gözlem ve tahminlerini görmek için tıklayın.

Haritayı değiştirmek için: yaklaştırmak için siyah artı işaretli yeşil düğmeye ve uzaklaştırmak için de eksi işaretli düğmeye hızla tıklayın; bitişik haritalar için yeşil okları kullanın.


METAR-TAF: